• Join FlightAware (Why Join?)
  • Login
  • US Flag 
Gobble Gobble! 
01:59AM EST


 

Airport Tracker/Info


-or-


 

Live Flight TrackerFlight Track Log ✈ GGA1 ✈ 11-Apr-2013 ✈ KLEX - KAHN

Flight Track Log - Related Links

Times and Time Zones

All times are in EDT time to prevent confusion due to time zone crossing. See the GGA1 flight status page for this flight to view local times or setup timezone preferences in your user account.

Time Position Orientation Groundspeed Altitude Reporting Facility
EDT Latitude Longitude Course Direction KTS MPH feet Rate Location/Type
03:32PM 37.9881 -84.6483 165° South 134 154 3,800  Level Indianapolis Center
03:33PM 37.9508 -84.6567 190° South 153 176 6,200 2,100 Climbing Indianapolis Center
03:34PM 37.9172 -84.6442 164° South 135 155 8,200 1,980 Climbing Indianapolis Center
03:35PM 37.8803 -84.6314 165° South 136 157 10,300 1,920 Climbing Indianapolis Center
03:36PM 37.8439 -84.6192 165° South 135 155 12,200 1,800 Climbing Indianapolis Center
03:37PM 37.7251 -84.5059 165° South  Level Estimated
03:37PM 37.8081 -84.6067 165° South 134 154 14,100  Level Indianapolis Center
03:38PM 37.6628 -84.4854 165° South  Level Estimated
03:38PM 37.7678 -84.5917 164° South 130 150 16,500  Level Indianapolis Center
03:40PM 37.7308 -84.5806 167° South 134 154 18,400 1,800 Climbing Indianapolis Center
03:41PM 37.6917 -84.5675 165° South 143 165 20,300 1,800 Climbing Indianapolis Center
03:42PM 37.6492 -84.5531 165° South 152 175 22,200 1,560 Climbing Indianapolis Center
03:43PM 37.6047 -84.5369 164° South 164 189 23,600 1,200 Climbing Indianapolis Center
03:44PM 37.5461 -84.5167 165° South 185 213 24,800 660 Climbing Indianapolis Center
03:45PM 37.4894 -84.4981 165° South 210 242 25,000 60 Climbing Indianapolis Center
03:46PM 37.4275 -84.4767 165° South 228 262 25,000  Level Indianapolis Center
03:47PM 37.3644 -84.4558 165° South 233 268 25,000  Level Indianapolis Center
03:48PM 37.3011 -84.4322 163° South 236 272 25,000  Level Indianapolis Center
03:49PM 37.2378 -84.4100 164° South 236 272 25,000  Level Indianapolis Center
03:50PM 37.1633 -84.3844 165° South 237 273 25,000  Level Indianapolis Center
03:51PM 37.1003 -84.3639 165° South 235 270 25,000  Level Indianapolis Center
03:52PM 37.0364 -84.3417 164° South 238 274 25,000  Level Indianapolis Center
03:53PM 36.9714 -84.3200 165° South 240 276 25,000  Level Indianapolis Center
03:54PM 36.9069 -84.2978 165° South 241 277 25,000  Level Indianapolis Center
03:55PM 36.8325 -84.2711 164° South 239 275 25,000  Level Indianapolis Center
03:56PM 36.7697 -84.2511 166° South 236 272 25,000  Level Indianapolis Center
03:57PM 36.7067 -84.2286 164° South 235 270 25,000  Level Indianapolis Center
03:58PM 36.6433 -84.2067 164° South 236 272 25,000  Level Indianapolis Center
03:59PM 36.5789 -84.1858 165° South 238 274 25,000  Level Indianapolis Center
04:00PM 36.5086 -84.1622 165° South 247 284 25,000  Level Indianapolis Center
04:01PM 36.4411 -84.1403 165° South 249 287 25,000  Level Indianapolis Center
04:02PM 36.3608 -84.1139 165° South 249 287 25,000  Level Indianapolis Center
04:03PM 36.3356 -84.1083 170° South 245 282 25,000  Level Atlanta Center
04:04PM 36.2689 -84.0850 164° South 245 282 25,000  Level Atlanta Center
04:05PM 36.2000 -84.0619 165° South 245 282 25,000  Level Atlanta Center
04:06PM 36.1356 -84.0414 166° South 245 282 25,000  Level Atlanta Center
04:07PM 36.0708 -84.0181 164° South 245 282 25,000  Level Atlanta Center
04:08PM 35.9978 -83.9950 166° South 245 282 25,000  Level Atlanta Center
04:09PM 35.9331 -83.9747 166° South 245 282 25,000 -300 Level Atlanta Center
04:10PM 35.8642 -83.9492 163° South 245 282 24,500 -540 Descending Atlanta Center
04:11PM 35.7933 -83.9261 165° South 251 289 24,000 -300 Descending Atlanta Center
04:12PM 35.7244 -83.9031 165° South 256 295 24,000 -240 Level Atlanta Center
04:13PM 35.6578 -83.8828 166° South 256 295 23,600 -540 Descending Atlanta Center
04:14PM 35.5847 -83.8575 164° South 261 300 23,000 -300 Descending Atlanta Center
04:15PM 35.5158 -83.8347 165° South 261 300 23,000  Level Atlanta Center
04:16PM 35.4489 -83.8144 166° South 261 300 23,000  Level Atlanta Center
04:17PM 35.3822 -83.7942 166° South 256 295 23,000  Level Atlanta Center
04:18PM 35.3153 -83.7714 164° South 256 295 23,000 -300 Level Atlanta Center
04:19PM 35.2486 -83.7514 166° South 256 295 22,500 -780 Descending Atlanta Center
04:20PM 35.1711 -83.7236 164° South 267 307 21,500 -1,020 Descending Atlanta Center
04:21PM 35.1003 -83.7011 165° South 272 313 20,500 -1,020 Descending Atlanta Center
04:22PM 35.0272 -83.6761 164° South 272 313 19,500 -1,140 Descending Atlanta Center
04:23PM 34.9539 -83.6536 166° South 272 313 18,300 -1,200 Descending Atlanta Center
04:24PM 34.8872 -83.6286 163° South 283 326 17,200 -660 Descending Atlanta Center
04:25PM 34.8183 -83.6061 165° South 270 311 17,000 -720 Descending Atlanta Center
04:26PM 34.7389 -83.5811 166° South 265 305 15,800 -1,200 Descending Atlanta Center
04:27PM 34.6678 -83.5564 164° South 260 299 14,600 -1,200 Descending Atlanta Center
04:29PM 34.5278 -83.5117 165° South 260 299 12,200 -1,140 Descending Atlanta Center
04:30PM 34.4672 -83.4919 165° South 244 281 11,200 -1,440 Descending Atlanta Center
04:31PM 34.4044 -83.4747 167° South 234 269 9,400 -1,920 Descending Atlanta Center
04:32PM 34.3397 -83.4550 166° South 240 276 7,400 -1,680 Descending Atlanta Center
04:33PM 34.2811 -83.4353 164° South 230 265 6,100 -1,380 Descending Atlanta Center
04:34PM 34.2225 -83.4183 167° South 224 258 4,700 -1,260 Descending Atlanta Center
04:35PM 34.1683 -83.3986 163° South 227 261 3,600 -900 Descending Atlanta Center
04:36PM 34.1161 -83.3789 163° South 216 249 3,000 -420 Descending Atlanta Center
04:37PM 34.0678 -83.3592 161° South 197 227 2,800 -360 Descending Atlanta Center
04:38PM 34.0136 -83.3672 187° South 190 219 2,300 -480 Descending Atlanta Center
04:39PM 33.9678 -83.3650 178° South 183 211 1,900 -420 Descending Atlanta Center
04:42PM 33.9486 -83.3264 165° South  Level Estimated
04:49PM 33.9486 -83.3264 165° South  Level Estimated
04:50PM 33.9486 -83.3264 165° South  Level Estimated